Mactan Cebu International Airport
RPVM : now visible

Airfield :











YOU CAN JOIN US ON...

 
LOGIN :

Register | Disclaimer

   EN    FR    IT 

 









Legend :    VFR   Marginal VFR   IFR   Intensive IFR   Very Intensive IFR
Visi :
Ceiling :
>= 8 km
>= 3000ft
5 to 8 km
1000 to 3000 ft
1500m to 5 km
500 to 1000 ft
800 to 1500m
200 to 500 ft
< 800m
< 200 ft
Symbols :   Thunderstorms  Fog  Heavy snow  Heavy precipitations  Wind > 20 kt






- Airport Elevation : 31 ft
- IATA code : CEB


RPVM - Mactan Cebu International

CURRENT METAR :
  • 131100Z 34007KT 9999 FEW018CB SCT020 OVC100 29/22 Q1010 RMK A2983 CB W

EXPIRED METARs :
  • 131000Z 35006KT 9999 FEW020 OVC250 29/23 Q1009 RMK A2980
  • 130900Z 34007KT 9999 FEW020 BKN100 BKN250 29/22 Q1008 RMK A2977

TAF TAF RPVM
Valid from the 13 at 12:00 until the 14 at 18:00 UTC


131100Z 1312/1418 32008KT 9999 FEW020 BKN100
TEMPO 1312/1318 32010KT FEW020 OVC100
TEMPO 1318/1324N 30008KT -SHRA FEW020 BKN100



MET'MAP, your aeronautical weather chart ! - Copyright ORBIFLY December 2007 - Disclaimer

ORBIFLY MET'MAP TEAM :

Programming & Development : Alexandra Zaïnal
Concept & Development : Baudouin d'Aumeries
Co-Development & Prog : Marc-Olivier Méhu
Technical & hardware support : Manuel Goepfert

Contact : metmap@orbifly.com




SOURCES & CREDITS :

   NOAA       Earth
Advisory